Elwyn Terrace, Pennsylvania
Current Conditions -  °F | °C
As of 5:53 AM on Friday 24 Oct 2014 (Local Time) from KLNS Reporting Station
Overcast Overcast  
Wind Chill: 13°   Ceiling: 3400
Heat Index: 13°   Visibility: 10mi
Dew Point:   Wind: 15mph
Humidity: 64%   Direction: 320°NW
Pressure: 29.89"   Gusts: NA
Location:  40.1777°N, 76.4291°W
Report Text: KLNS 240953Z AUTO 32013KT 10SM OVC034 13/06 A2989 RMK AO2 SLP121 T01280061
Loading
Personal Weather Stations






























Interactive Weather Map
Tropical Storm Tracking
New forecast layout! Learn more

10-Day Weather Forecast

Advertisements
Track Severe Weather on mobile